sensor_id;sensor_type;location;lat;lon;timestamp;P1;durP1;ratioP1;P2;durP2;ratioP2
36241;SDS011;22283;42.748;12.732;2022-10-16T00:03:21;9.47;;;6.70;;
36241;SDS011;22283;42.748;12.732;2022-10-16T00:08:22;12.03;;;7.23;;
36241;SDS011;22283;42.748;12.732;2022-10-16T00:13:22;13.73;;;7.77;;
36241;SDS011;22283;42.748;12.732;2022-10-16T00:18:23;11.27;;;7.43;;
36241;SDS011;22283;42.748;12.732;2022-10-16T00:23:25;15.35;;;7.50;;
36241;SDS011;22283;42.748;12.732;2022-10-16T00:28:26;13.90;;;7.73;;
36241;SDS011;22283;42.748;12.732;2022-10-16T00:33:26;11.63;;;7.80;;
36241;SDS011;22283;42.748;12.732;2022-10-16T00:38:27;12.13;;;7.07;;
36241;SDS011;22283;42.748;12.732;2022-10-16T00:43:44;14.27;;;8.03;;
36241;SDS011;22283;42.748;12.732;2022-10-16T00:48:51;20.92;;;7.50;;
36241;SDS011;22283;42.748;12.732;2022-10-16T00:54:04;12.52;;;7.72;;
36241;SDS011;22283;42.748;12.732;2022-10-16T00:59:11;14.05;;;8.07;;
36241;SDS011;22283;42.748;12.732;2022-10-16T01:04:19;13.35;;;7.10;;
36241;SDS011;22283;42.748;12.732;2022-10-16T01:09:22;12.10;;;7.90;;
36241;SDS011;22283;42.748;12.732;2022-10-16T01:14:46;12.00;;;8.20;;
36241;SDS011;22283;42.748;12.732;2022-10-16T01:25:12;13.15;;;7.60;;
36241;SDS011;22283;42.748;12.732;2022-10-16T01:30:25;11.38;;;7.78;;
36241;SDS011;22283;42.748;12.732;2022-10-16T01:35:34;14.88;;;8.35;;
36241;SDS011;22283;42.748;12.732;2022-10-16T01:40:38;14.68;;;8.35;;
36241;SDS011;22283;42.748;12.732;2022-10-16T01:45:41;16.20;;;8.95;;
36241;SDS011;22283;42.748;12.732;2022-10-16T01:50:48;14.95;;;8.77;;
36241;SDS011;22283;42.748;12.732;2022-10-16T01:55:57;14.35;;;8.35;;
36241;SDS011;22283;42.748;12.732;2022-10-16T02:00:59;15.80;;;8.68;;
36241;SDS011;22283;42.748;12.732;2022-10-16T02:06:02;13.15;;;8.23;;
36241;SDS011;22283;42.748;12.732;2022-10-16T02:11:02;14.60;;;7.93;;
36241;SDS011;22283;42.748;12.732;2022-10-16T02:16:03;14.43;;;8.23;;
36241;SDS011;22283;42.748;12.732;2022-10-16T02:26:07;15.33;;;8.23;;
36241;SDS011;22283;42.748;12.732;2022-10-16T02:31:10;14.95;;;8.38;;
36241;SDS011;22283;42.748;12.732;2022-10-16T02:36:13;12.55;;;8.20;;
36241;SDS011;22283;42.748;12.732;2022-10-16T02:41:14;13.68;;;7.55;;
36241;SDS011;22283;42.748;12.732;2022-10-16T02:46:15;13.30;;;8.00;;
36241;SDS011;22283;42.748;12.732;2022-10-16T02:51:17;15.43;;;9.13;;
36241;SDS011;22283;42.748;12.732;2022-10-16T02:56:18;13.70;;;8.70;;
36241;SDS011;22283;42.748;12.732;2022-10-16T03:01:19;14.80;;;7.97;;
36241;SDS011;22283;42.748;12.732;2022-10-16T03:06:19;14.00;;;8.50;;
36241;SDS011;22283;42.748;12.732;2022-10-16T03:11:20;19.13;;;9.00;;
36241;SDS011;22283;42.748;12.732;2022-10-16T03:16:21;15.13;;;10.17;;
36241;SDS011;22283;42.748;12.732;2022-10-16T03:21:21;14.97;;;8.33;;
36241;SDS011;22283;42.748;12.732;2022-10-16T03:26:22;13.73;;;8.67;;
36241;SDS011;22283;42.748;12.732;2022-10-16T03:31:22;14.27;;;9.00;;
36241;SDS011;22283;42.748;12.732;2022-10-16T03:36:23;15.43;;;8.60;;
36241;SDS011;22283;42.748;12.732;2022-10-16T03:41:24;12.20;;;8.43;;
36241;SDS011;22283;42.748;12.732;2022-10-16T03:46:25;17.63;;;9.07;;
36241;SDS011;22283;42.748;12.732;2022-10-16T03:51:25;12.93;;;8.43;;
36241;SDS011;22283;42.748;12.732;2022-10-16T03:56:26;14.50;;;9.00;;
36241;SDS011;22283;42.748;12.732;2022-10-16T04:01:26;14.77;;;8.57;;
36241;SDS011;22283;42.748;12.732;2022-10-16T04:06:27;14.37;;;10.00;;
36241;SDS011;22283;42.748;12.732;2022-10-16T04:11:28;18.97;;;9.20;;
36241;SDS011;22283;42.748;12.732;2022-10-16T04:16:28;18.13;;;9.43;;
36241;SDS011;22283;42.748;12.732;2022-10-16T04:21:29;13.50;;;8.93;;
36241;SDS011;22283;42.748;12.732;2022-10-16T04:26:30;19.73;;;10.37;;
36241;SDS011;22283;42.748;12.732;2022-10-16T04:31:30;20.17;;;9.73;;
36241;SDS011;22283;42.748;12.732;2022-10-16T04:36:31;17.80;;;10.43;;
36241;SDS011;22283;42.748;12.732;2022-10-16T04:41:31;19.20;;;10.23;;
36241;SDS011;22283;42.748;12.732;2022-10-16T04:46:32;19.57;;;10.03;;
36241;SDS011;22283;42.748;12.732;2022-10-16T04:51:33;16.63;;;10.03;;
36241;SDS011;22283;42.748;12.732;2022-10-16T04:56:33;16.03;;;10.00;;
36241;SDS011;22283;42.748;12.732;2022-10-16T05:01:40;14.85;;;9.65;;
36241;SDS011;22283;42.748;12.732;2022-10-16T05:06:41;16.00;;;9.13;;
36241;SDS011;22283;42.748;12.732;2022-10-16T05:11:41;13.13;;;9.70;;
36241;SDS011;22283;42.748;12.732;2022-10-16T05:16:42;14.60;;;8.63;;
36241;SDS011;22283;42.748;12.732;2022-10-16T05:21:43;23.13;;;10.03;;
36241;SDS011;22283;42.748;12.732;2022-10-16T05:26:44;14.90;;;10.20;;
36241;SDS011;22283;42.748;12.732;2022-10-16T05:31:44;18.63;;;10.63;;
36241;SDS011;22283;42.748;12.732;2022-10-16T05:36:45;18.13;;;10.47;;
36241;SDS011;22283;42.748;12.732;2022-10-16T05:41:46;18.43;;;9.90;;
36241;SDS011;22283;42.748;12.732;2022-10-16T05:46:46;22.90;;;10.27;;
36241;SDS011;22283;42.748;12.732;2022-10-16T05:51:47;18.48;;;11.05;;
36241;SDS011;22283;42.748;12.732;2022-10-16T05:56:48;21.27;;;10.63;;
36241;SDS011;22283;42.748;12.732;2022-10-16T06:01:49;23.33;;;10.80;;
36241;SDS011;22283;42.748;12.732;2022-10-16T06:06:49;28.83;;;11.73;;
36241;SDS011;22283;42.748;12.732;2022-10-16T06:11:50;30.53;;;10.73;;
36241;SDS011;22283;42.748;12.732;2022-10-16T06:16:50;19.10;;;9.50;;
36241;SDS011;22283;42.748;12.732;2022-10-16T06:21:51;16.23;;;10.40;;
36241;SDS011;22283;42.748;12.732;2022-10-16T06:26:52;13.97;;;8.83;;
36241;SDS011;22283;42.748;12.732;2022-10-16T06:31:52;20.50;;;9.83;;
36241;SDS011;22283;42.748;12.732;2022-10-16T06:36:53;18.63;;;8.50;;
36241;SDS011;22283;42.748;12.732;2022-10-16T06:41:54;15.37;;;8.73;;
36241;SDS011;22283;42.748;12.732;2022-10-16T06:47:08;12.27;;;8.38;;
36241;SDS011;22283;42.748;12.732;2022-10-16T06:52:08;14.00;;;8.67;;
36241;SDS011;22283;42.748;12.732;2022-10-16T06:57:09;22.07;;;8.87;;
36241;SDS011;22283;42.748;12.732;2022-10-16T07:02:10;16.60;;;7.30;;
36241;SDS011;22283;42.748;12.732;2022-10-16T07:07:10;22.93;;;8.37;;
36241;SDS011;22283;42.748;12.732;2022-10-16T07:12:11;12.30;;;7.83;;
36241;SDS011;22283;42.748;12.732;2022-10-16T07:17:12;24.20;;;8.48;;
36241;SDS011;22283;42.748;12.732;2022-10-16T07:22:13;17.93;;;8.43;;
36241;SDS011;22283;42.748;12.732;2022-10-16T07:27:14;22.40;;;8.80;;
36241;SDS011;22283;42.748;12.732;2022-10-16T07:32:15;14.88;;;7.53;;
36241;SDS011;22283;42.748;12.732;2022-10-16T07:37:16;17.05;;;6.97;;
36241;SDS011;22283;42.748;12.732;2022-10-16T07:42:17;16.73;;;7.80;;
36241;SDS011;22283;42.748;12.732;2022-10-16T07:47:18;14.00;;;8.33;;
36241;SDS011;22283;42.748;12.732;2022-10-16T07:52:19;14.07;;;8.03;;
36241;SDS011;22283;42.748;12.732;2022-10-16T07:57:19;18.17;;;8.10;;
36241;SDS011;22283;42.748;12.732;2022-10-16T08:02:20;13.60;;;8.87;;
36241;SDS011;22283;42.748;12.732;2022-10-16T08:07:20;21.63;;;12.20;;
36241;SDS011;22283;42.748;12.732;2022-10-16T08:12:21;19.50;;;12.10;;
36241;SDS011;22283;42.748;12.732;2022-10-16T08:17:22;21.43;;;10.73;;
36241;SDS011;22283;42.748;12.732;2022-10-16T08:22:22;15.50;;;9.33;;
36241;SDS011;22283;42.748;12.732;2022-10-16T08:27:23;16.63;;;9.57;;
36241;SDS011;22283;42.748;12.732;2022-10-16T08:32:24;18.57;;;8.67;;
36241;SDS011;22283;42.748;12.732;2022-10-16T08:37:24;15.77;;;9.27;;
36241;SDS011;22283;42.748;12.732;2022-10-16T08:43:13;11.77;;;7.43;;
36241;SDS011;22283;42.748;12.732;2022-10-16T08:48:17;18.42;;;8.65;;
36241;SDS011;22283;42.748;12.732;2022-10-16T08:53:27;13.73;;;7.97;;
36241;SDS011;22283;42.748;12.732;2022-10-16T08:58:31;13.65;;;6.32;;
36241;SDS011;22283;42.748;12.732;2022-10-16T09:20:11;13.00;;;7.10;;
36241;SDS011;22283;42.748;12.732;2022-10-16T09:25:17;9.52;;;6.35;;
36241;SDS011;22283;42.748;12.732;2022-10-16T09:30:21;13.38;;;7.22;;
36241;SDS011;22283;42.748;12.732;2022-10-16T09:35:27;12.18;;;7.10;;
36241;SDS011;22283;42.748;12.732;2022-10-16T09:40:38;17.13;;;8.25;;
36241;SDS011;22283;42.748;12.732;2022-10-16T09:45:42;11.07;;;6.43;;
36241;SDS011;22283;42.748;12.732;2022-10-16T09:55:47;12.70;;;6.82;;
36241;SDS011;22283;42.748;12.732;2022-10-16T10:00:50;9.90;;;6.75;;
36241;SDS011;22283;42.748;12.732;2022-10-16T10:05:53;12.32;;;6.68;;
36241;SDS011;22283;42.748;12.732;2022-10-16T10:10:54;10.60;;;5.93;;
36241;SDS011;22283;42.748;12.732;2022-10-16T10:15:55;11.75;;;5.63;;
36241;SDS011;22283;42.748;12.732;2022-10-16T10:20:59;13.18;;;6.97;;
36241;SDS011;22283;42.748;12.732;2022-10-16T10:26:04;12.13;;;6.05;;
36241;SDS011;22283;42.748;12.732;2022-10-16T10:31:24;10.73;;;6.00;;
36241;SDS011;22283;42.748;12.732;2022-10-16T10:36:34;16.08;;;6.20;;
36241;SDS011;22283;42.748;12.732;2022-10-16T11:03:57;12.48;;;6.25;;
36241;SDS011;22283;42.748;12.732;2022-10-16T11:09:28;11.30;;;7.18;;
36241;SDS011;22283;42.748;12.732;2022-10-16T11:14:42;13.40;;;5.88;;
36241;SDS011;22283;42.748;12.732;2022-10-16T11:25:28;15.98;;;6.72;;
36241;SDS011;22283;42.748;12.732;2022-10-16T11:30:33;13.50;;;5.88;;
36241;SDS011;22283;42.748;12.732;2022-10-16T11:36:00;8.35;;;4.68;;
36241;SDS011;22283;42.748;12.732;2022-10-16T11:41:16;8.95;;;5.55;;
36241;SDS011;22283;42.748;12.732;2022-10-16T11:46:24;11.85;;;5.75;;
36241;SDS011;22283;42.748;12.732;2022-10-16T11:56:35;11.18;;;5.00;;
36241;SDS011;22283;42.748;12.732;2022-10-16T12:06:53;12.57;;;5.63;;
36241;SDS011;22283;42.748;12.732;2022-10-16T12:12:03;10.25;;;4.82;;
36241;SDS011;22283;42.748;12.732;2022-10-16T12:22:24;10.25;;;4.78;;
36241;SDS011;22283;42.748;12.732;2022-10-16T12:27:30;8.93;;;5.35;;
36241;SDS011;22283;42.748;12.732;2022-10-16T12:32:36;8.70;;;4.63;;
36241;SDS011;22283;42.748;12.732;2022-10-16T12:37:39;7.78;;;4.88;;
36241;SDS011;22283;42.748;12.732;2022-10-16T12:42:40;11.52;;;5.13;;
36241;SDS011;22283;42.748;12.732;2022-10-16T12:52:49;14.18;;;4.97;;
36241;SDS011;22283;42.748;12.732;2022-10-16T13:34:32;15.02;;;5.82;;
36241;SDS011;22283;42.748;12.732;2022-10-16T13:44:39;8.50;;;4.70;;
36241;SDS011;22283;42.748;12.732;2022-10-16T13:49:43;6.30;;;4.25;;
36241;SDS011;22283;42.748;12.732;2022-10-16T13:59:44;6.97;;;4.30;;
36241;SDS011;22283;42.748;12.732;2022-10-16T14:04:45;11.68;;;5.05;;
36241;SDS011;22283;42.748;12.732;2022-10-16T14:09:48;8.65;;;4.75;;
36241;SDS011;22283;42.748;12.732;2022-10-16T14:14:51;8.68;;;4.55;;
36241;SDS011;22283;42.748;12.732;2022-10-16T14:19:54;9.77;;;4.63;;
36241;SDS011;22283;42.748;12.732;2022-10-16T14:24:58;11.32;;;5.32;;
36241;SDS011;22283;42.748;12.732;2022-10-16T14:35:23;7.35;;;5.15;;
36241;SDS011;22283;42.748;12.732;2022-10-16T14:40:27;11.07;;;5.75;;
36241;SDS011;22283;42.748;12.732;2022-10-16T14:45:31;9.00;;;5.13;;
36241;SDS011;22283;42.748;12.732;2022-10-16T14:50:34;10.02;;;6.15;;
36241;SDS011;22283;42.748;12.732;2022-10-16T14:55:36;10.57;;;5.43;;
36241;SDS011;22283;42.748;12.732;2022-10-16T15:00:37;10.18;;;4.78;;
36241;SDS011;22283;42.748;12.732;2022-10-16T15:05:38;8.40;;;5.00;;
36241;SDS011;22283;42.748;12.732;2022-10-16T15:15:44;18.05;;;5.50;;
36241;SDS011;22283;42.748;12.732;2022-10-16T15:20:48;7.75;;;4.45;;
36241;SDS011;22283;42.748;12.732;2022-10-16T15:25:51;10.70;;;5.38;;
36241;SDS011;22283;42.748;12.732;2022-10-16T15:30:54;16.45;;;5.45;;
36241;SDS011;22283;42.748;12.732;2022-10-16T15:35:56;10.40;;;5.78;;
36241;SDS011;22283;42.748;12.732;2022-10-16T15:40:57;10.43;;;4.88;;
36241;SDS011;22283;42.748;12.732;2022-10-16T15:46:02;7.90;;;5.00;;
36241;SDS011;22283;42.748;12.732;2022-10-16T15:51:06;10.63;;;5.20;;
36241;SDS011;22283;42.748;12.732;2022-10-16T15:56:08;14.02;;;6.38;;
36241;SDS011;22283;42.748;12.732;2022-10-16T16:01:11;12.43;;;7.60;;
36241;SDS011;22283;42.748;12.732;2022-10-16T16:11:14;20.53;;;10.47;;
36241;SDS011;22283;42.748;12.732;2022-10-16T16:16:16;11.45;;;7.82;;
36241;SDS011;22283;42.748;12.732;2022-10-16T16:21:18;11.45;;;7.50;;
36241;SDS011;22283;42.748;12.732;2022-10-16T16:26:22;12.60;;;6.93;;
36241;SDS011;22283;42.748;12.732;2022-10-16T16:31:27;14.88;;;6.97;;
36241;SDS011;22283;42.748;12.732;2022-10-16T16:36:30;12.23;;;7.18;;
36241;SDS011;22283;42.748;12.732;2022-10-16T16:41:31;12.65;;;7.63;;
36241;SDS011;22283;42.748;12.732;2022-10-16T16:46:33;16.70;;;7.32;;
36241;SDS011;22283;42.748;12.732;2022-10-16T16:51:34;11.15;;;8.02;;
36241;SDS011;22283;42.748;12.732;2022-10-16T16:56:34;12.10;;;7.80;;
36241;SDS011;22283;42.748;12.732;2022-10-16T17:01:35;13.18;;;7.38;;
36241;SDS011;22283;42.748;12.732;2022-10-16T17:06:36;11.67;;;7.10;;
36241;SDS011;22283;42.748;12.732;2022-10-16T17:11:37;23.00;;;11.13;;
36241;SDS011;22283;42.748;12.732;2022-10-16T17:16:39;16.87;;;10.17;;
36241;SDS011;22283;42.748;12.732;2022-10-16T17:21:40;34.45;;;15.07;;
36241;SDS011;22283;42.748;12.732;2022-10-16T17:31:48;26.25;;;13.23;;
36241;SDS011;22283;42.748;12.732;2022-10-16T17:41:49;18.80;;;9.68;;
36241;SDS011;22283;42.748;12.732;2022-10-16T17:46:51;10.77;;;8.97;;
36241;SDS011;22283;42.748;12.732;2022-10-16T17:51:52;18.83;;;9.30;;
36241;SDS011;22283;42.748;12.732;2022-10-16T17:56:54;13.70;;;9.68;;
36241;SDS011;22283;42.748;12.732;2022-10-16T18:01:54;18.17;;;9.37;;
36241;SDS011;22283;42.748;12.732;2022-10-16T18:06:55;13.73;;;9.00;;
36241;SDS011;22283;42.748;12.732;2022-10-16T18:11:56;13.20;;;9.67;;
36241;SDS011;22283;42.748;12.732;2022-10-16T18:16:59;18.05;;;9.60;;
36241;SDS011;22283;42.748;12.732;2022-10-16T18:22:00;12.75;;;8.55;;
36241;SDS011;22283;42.748;12.732;2022-10-16T18:27:01;14.20;;;9.35;;
36241;SDS011;22283;42.748;12.732;2022-10-16T18:32:02;14.17;;;8.53;;
36241;SDS011;22283;42.748;12.732;2022-10-16T18:37:03;19.87;;;9.53;;
36241;SDS011;22283;42.748;12.732;2022-10-16T18:42:03;11.30;;;8.27;;
36241;SDS011;22283;42.748;12.732;2022-10-16T18:47:04;12.93;;;8.50;;
36241;SDS011;22283;42.748;12.732;2022-10-16T18:52:04;14.93;;;8.80;;
36241;SDS011;22283;42.748;12.732;2022-10-16T18:57:05;11.88;;;9.50;;
36241;SDS011;22283;42.748;12.732;2022-10-16T19:02:07;16.45;;;9.10;;
36241;SDS011;22283;42.748;12.732;2022-10-16T19:07:09;22.35;;;9.00;;
36241;SDS011;22283;42.748;12.732;2022-10-16T19:12:10;13.35;;;8.68;;
36241;SDS011;22283;42.748;12.732;2022-10-16T19:17:11;16.05;;;9.55;;
36241;SDS011;22283;42.748;12.732;2022-10-16T19:22:11;14.00;;;9.40;;
36241;SDS011;22283;42.748;12.732;2022-10-16T19:27:26;12.23;;;9.35;;
36241;SDS011;22283;42.748;12.732;2022-10-16T19:32:27;13.23;;;8.77;;
36241;SDS011;22283;42.748;12.732;2022-10-16T19:37:28;12.23;;;9.53;;
36241;SDS011;22283;42.748;12.732;2022-10-16T19:42:28;11.30;;;8.30;;
36241;SDS011;22283;42.748;12.732;2022-10-16T19:47:30;12.30;;;9.50;;
36241;SDS011;22283;42.748;12.732;2022-10-16T19:52:32;16.23;;;9.35;;
36241;SDS011;22283;42.748;12.732;2022-10-16T19:57:34;13.87;;;9.50;;
36241;SDS011;22283;42.748;12.732;2022-10-16T20:02:36;15.65;;;9.60;;
36241;SDS011;22283;42.748;12.732;2022-10-16T20:07:37;12.88;;;9.00;;
36241;SDS011;22283;42.748;12.732;2022-10-16T20:12:37;14.83;;;9.43;;
36241;SDS011;22283;42.748;12.732;2022-10-16T20:17:38;17.70;;;9.57;;
36241;SDS011;22283;42.748;12.732;2022-10-16T20:22:39;18.10;;;9.33;;
36241;SDS011;22283;42.748;12.732;2022-10-16T20:27:40;18.77;;;8.98;;
36241;SDS011;22283;42.748;12.732;2022-10-16T20:32:40;22.30;;;9.43;;
36241;SDS011;22283;42.748;12.732;2022-10-16T20:37:41;16.00;;;9.57;;
36241;SDS011;22283;42.748;12.732;2022-10-16T20:42:43;14.27;;;9.40;;
36241;SDS011;22283;42.748;12.732;2022-10-16T20:47:44;17.23;;;10.50;;
36241;SDS011;22283;42.748;12.732;2022-10-16T20:52:45;13.97;;;8.97;;
36241;SDS011;22283;42.748;12.732;2022-10-16T20:57:45;12.60;;;9.53;;
36241;SDS011;22283;42.748;12.732;2022-10-16T21:02:49;15.73;;;10.10;;
36241;SDS011;22283;42.748;12.732;2022-10-16T21:07:50;12.13;;;8.98;;
36241;SDS011;22283;42.748;12.732;2022-10-16T21:12:51;11.57;;;8.73;;
36241;SDS011;22283;42.748;12.732;2022-10-16T21:17:53;20.98;;;14.38;;
36241;SDS011;22283;42.748;12.732;2022-10-16T21:22:54;17.70;;;10.47;;
36241;SDS011;22283;42.748;12.732;2022-10-16T21:27:55;18.77;;;11.10;;
36241;SDS011;22283;42.748;12.732;2022-10-16T21:32:55;16.50;;;11.73;;
36241;SDS011;22283;42.748;12.732;2022-10-16T21:37:56;16.47;;;10.03;;
36241;SDS011;22283;42.748;12.732;2022-10-16T21:42:57;16.03;;;9.50;;
36241;SDS011;22283;42.748;12.732;2022-10-16T21:47:57;14.13;;;10.10;;
36241;SDS011;22283;42.748;12.732;2022-10-16T21:52:58;15.70;;;8.80;;
36241;SDS011;22283;42.748;12.732;2022-10-16T21:57:59;11.63;;;7.80;;
36241;SDS011;22283;42.748;12.732;2022-10-16T22:03:00;13.10;;;8.13;;
36241;SDS011;22283;42.748;12.732;2022-10-16T22:08:00;11.33;;;8.37;;
36241;SDS011;22283;42.748;12.732;2022-10-16T22:13:01;24.77;;;9.57;;
36241;SDS011;22283;42.748;12.732;2022-10-16T22:18:02;13.60;;;8.57;;
36241;SDS011;22283;42.748;12.732;2022-10-16T22:23:02;13.57;;;9.17;;
36241;SDS011;22283;42.748;12.732;2022-10-16T22:28:03;10.57;;;7.67;;
36241;SDS011;22283;42.748;12.732;2022-10-16T22:33:04;10.20;;;7.75;;
36241;SDS011;22283;42.748;12.732;2022-10-16T22:38:05;13.05;;;8.30;;
36241;SDS011;22283;42.748;12.732;2022-10-16T22:43:06;11.83;;;7.37;;
36241;SDS011;22283;42.748;12.732;2022-10-16T22:48:06;13.40;;;9.47;;
36241;SDS011;22283;42.748;12.732;2022-10-16T22:53:07;20.93;;;9.07;;
36241;SDS011;22283;42.748;12.732;2022-10-16T22:58:08;20.83;;;10.40;;
36241;SDS011;22283;42.748;12.732;2022-10-16T23:03:08;13.37;;;8.97;;
36241;SDS011;22283;42.748;12.732;2022-10-16T23:08:10;16.80;;;9.65;;
36241;SDS011;22283;42.748;12.732;2022-10-16T23:13:12;15.90;;;8.68;;
36241;SDS011;22283;42.748;12.732;2022-10-16T23:18:13;14.98;;;9.15;;
36241;SDS011;22283;42.748;12.732;2022-10-16T23:23:13;12.70;;;8.80;;
36241;SDS011;22283;42.748;12.732;2022-10-16T23:28:14;14.03;;;9.97;;
36241;SDS011;22283;42.748;12.732;2022-10-16T23:33:15;15.90;;;8.70;;
36241;SDS011;22283;42.748;12.732;2022-10-16T23:38:15;15.20;;;8.97;;
36241;SDS011;22283;42.748;12.732;2022-10-16T23:43:16;15.50;;;8.13;;
36241;SDS011;22283;42.748;12.732;2022-10-16T23:48:17;16.57;;;8.77;;
36241;SDS011;22283;42.748;12.732;2022-10-16T23:53:18;12.40;;;8.10;;
36241;SDS011;22283;42.748;12.732;2022-10-16T23:58:19;12.32;;;9.13;;
